LFPO/ORY METAR and TAF weather

Enter ICAO airport designator
Station Type Date Time Source
LFPO METAR 2020/01/22 21:00 UTC NOAA

LFPO 222100Z 03007KT 4000 BR FEW005 M00/M01 Q1033 NOSIG


Station Type Date Time Source
LFPO Decoded METAR 2020/01/22 21:00 UTC NOAA

Paris-Orly, France (LFPO) 48-44N 002-24E 96M
Jan 22, 2020 - 04:00 PM EST / 2020.01.22 2100 UTC
Wind: from the NNE (030 degrees) at 8 MPH (7 KT):0
Visibility: 2 mile(s):0
Sky conditions: mostly clear
Weather: mist
Temperature: 32 F (0 C)
Windchill: 24 F (-4 C):1
Dew Point: 30 F (-1 C)
Relative Humidity: 92%
Pressure (altimeter): 30.50 in. Hg (1033 hPa)
ob: LFPO 222100Z 03007KT 4000 BR FEW005 M00/M01 Q1033 NOSIG
cycle: 21

Station Type Date Time Source
LFPO TAF 2020/01/22 20:42 UTC NOAA

TAF
AMD TAF
AMD LFPO 222038Z 2220/2324 03006KT CAVOK
TEMPO 2221/2311 4000 BR BKN004 PROB30
TEMPO 2306/2309 0900 FG VV///
BECMG 2321/2324 4000 BR BKN005
TEMPO 2321/2324 0400 FG VV///

Example: see airport list